Aeroporto :
LOGIN :

Iscrizione | Disclaimer

   EN    FR    IT 

 










Sommario :    VFR   VFR Marginale   IFR   IFR Intensivo   IFR Molto Intensivo
Visibilità : 
Base nubi : 
>= 8 km
>= 3000ft
5 / 8 km
1000 / 3000 ft
1500m / 5 km
500 / 1000 ft
800 / 1500m
200 / 500 ft
< 800m
< 200 ft
Simboli :   Temporali  Nebbia  Neve Forte  Precipitazioni Forti  Vento > 20 kt
SIGMETs :   Varie  Temporali  Ghiacco  Turbolenza  Onda orograficha  Ceneri Vulcaniche






- Altitudine del aeroporto : 1213 ft
- Codice IATA : SCQ


LEST - Santiago de Compostela

ULTIMO METAR :
  • 250000Z 21004KT 170V280 9999 SCT010 OVC022 08/07 Q1025 BECMG BKN010

METARs OBSOLETI :
  • 242330Z 21005KT 170V260 9999 SCT012 OVC019 08/07 Q1025 BECMG BKN010
  • 242300Z 22003KT 160V290 9999 BKN012 OVC019 08/07 Q1025 BECMG BKN010
  • 242230Z 22005KT 180V260 9999 OVC015 08/07 Q1025 BECMG BKN010
  • 242200Z 23005KT 200V270 9999 OVC015 08/07 Q1026 BECMG BKN010
  • 242130Z 23006KT 200V290 9999 OVC016 08/07 Q1026 BECMG BKN010

TAF TAF LEST
Valido dal 25 a 00 ore il 26 a 00 ore UTC


242300Z 2500/2524 22009KT 9999 SCT010 BKN016 TX12/2514Z TN06/2524Z
TEMPO 2500/2506 BKN010 BKN014
BECMG 2508/2510 32010KT
TEMPO 2503/2512 3000 -RADZ BKN005 BKN010
TEMPO 2506/2509 1500 RA BKN002 BKN005
PROB40
TEMPO 2509/2518 SHRA SCT025TCU



MetMap, La meteo Aeronautica in un colpo d'occhio ! - Copyright ORBIFLY Dicembre 2007 - Disclaimer

ORBIFLY MET'MAP TEAM :

Programmazione e sviluppo : Alexandra Zaïnal
Concezione : Baudouin d'Aumeries
Aiuto per la programmazione : Marc-Olivier Méhu
Supporto tecnico e logistico : Manuel Goepfert
Aiuto per la traduzione : Arnaldo La Scala

Contatto : metmap@orbifly.com




FONTI E CREDITI :

   NOAA